Time;durP1;ratioP1;P1;durP2;ratioP2;P2;SDS_P1;SDS_P2;PMS_P1;PMS_P2;Temp;Humidity;BMP_temperature;BMP_pressure;BME280_temperature;BME280_humidity;BME280_pressure;Samples;Min_cycle;Max_cycle;Signal;HPM_P1;HPM_P2
2023/07/09 00:01:39;;;;;;;7.50;4.88;;;;;;;20.80;59.95;101234.28;6005106;28;20058;-67
2023/07/09 00:04:35;;;;;;;8.70;5.00;;;;;;;20.56;60.27;101240.19;6004733;28;20053;-67
2023/07/09 00:07:31;;;;;;;6.95;4.20;;;;;;;20.37;60.79;101211.25;6005290;28;20023;-67
2023/07/09 00:10:26;;;;;;;7.35;4.00;;;;;;;20.50;60.64;101232.88;6010888;28;20030;-68
2023/07/09 00:13:23;;;;;;;7.70;4.30;;;;;;;20.61;60.46;101229.63;6004333;28;20089;-67
2023/07/09 00:16:23;;;;;;;8.60;4.65;;;;;;;20.40;60.69;101210.84;6003403;28;20105;-67
2023/07/09 00:19:23;;;;;;;9.35;4.13;;;;;;;20.50;60.21;101224.78;6004968;28;20053;-68
2023/07/09 00:22:19;;;;;;;8.32;4.28;;;;;;;20.67;60.36;101213.50;6004688;28;20470;-67
2023/07/09 00:25:16;;;;;;;11.75;4.35;;;;;;;20.79;59.77;101235.31;6004594;28;20037;-68
2023/07/09 00:28:18;;;;;;;6.95;4.25;;;;;;;20.64;60.96;101223.84;6004796;28;20038;-68
2023/07/09 00:31:16;;;;;;;6.97;4.45;;;;;;;20.57;60.24;101244.56;6003487;28;20026;-67
2023/07/09 00:34:14;;;;;;;6.15;4.07;;;;;;;20.50;61.70;101224.78;6004088;28;20034;-68
2023/07/09 00:37:11;;;;;;;6.18;3.55;;;;;;;20.53;60.85;101248.66;6004357;28;20036;-67
2023/07/09 00:40:13;;;;;;;7.30;4.07;;;;;;;20.42;61.13;101241.97;6003249;28;20038;-68
2023/07/09 00:43:14;;;;;;;4.95;3.35;;;;;;;20.24;61.38;101229.97;6004289;28;20477;-68
2023/07/09 00:46:19;;;;;;;8.07;4.10;;;;;;;20.25;61.65;101237.09;6003069;28;20035;-67
2023/07/09 00:49:29;;;;;;;8.40;4.30;;;;;;;20.11;62.08;101234.22;6008057;28;20039;-67
2023/07/09 00:52:32;;;;;;;7.55;3.80;;;;;;;19.73;62.84;101232.06;6003599;28;20069;-67
2023/07/09 00:55:30;;;;;;;7.30;4.15;;;;;;;19.84;63.08;101232.34;6003496;28;20105;-67
2023/07/09 00:58:27;;;;;;;7.95;3.67;;;;;;;19.85;63.35;101223.25;6003961;28;20045;-67
2023/07/09 01:01:23;;;;;;;8.30;3.88;;;;;;;20.07;62.70;101227.59;6004042;28;20023;-68
2023/07/09 01:04:23;;;;;;;7.38;3.90;;;;;;;20.09;62.28;101213.91;6002002;28;20113;-68
2023/07/09 01:07:19;;;;;;;7.22;4.05;;;;;;;20.03;62.18;101225.50;6003929;28;20477;-68
2023/07/09 01:10:17;;;;;;;6.63;4.32;;;;;;;19.89;62.49;101218.31;6003620;28;21290;-67
2023/07/09 01:13:12;;;;;;;5.57;3.67;;;;;;;19.91;63.66;101230.56;6003867;28;20070;-68
2023/07/09 01:16:08;;;;;;;6.43;3.80;;;;;;;19.37;63.46;101189.03;6003225;28;20027;-67
2023/07/09 01:19:04;;;;;;;10.00;4.45;;;;;;;19.52;63.70;101225.63;6003675;28;20090;-68
2023/07/09 01:22:01;;;;;;;9.93;4.70;;;;;;;19.26;64.49;101228.00;6003284;28;20343;-66
2023/07/09 01:25:04;;;;;;;7.50;4.10;;;;;;;19.08;65.11;101224.88;6002707;28;20500;-66
2023/07/09 01:28:00;;;;;;;6.93;4.22;;;;;;;19.23;64.58;101211.41;6003592;28;20069;-67
2023/07/09 01:30:56;;;;;;;9.15;3.95;;;;;;;19.08;64.97;101211.44;6010971;28;20125;-67
2023/07/09 01:33:51;;;;;;;7.00;4.00;;;;;;;19.10;65.29;101216.66;6001500;28;20101;-67
2023/07/09 01:36:46;;;;;;;7.53;4.20;;;;;;;19.00;65.25;101200.81;6011303;28;20043;-67
2023/07/09 01:39:42;;;;;;;5.57;3.70;;;;;;;18.85;65.73;101208.91;6008703;28;20470;-67
2023/07/09 01:42:40;;;;;;;6.03;3.80;;;;;;;18.99;65.24;101199.16;6002846;28;20058;-67
2023/07/09 01:45:36;;;;;;;8.52;4.32;;;;;;;18.98;65.82;101213.59;6002411;28;20034;-67
2023/07/09 01:48:40;;;;;;;8.93;4.72;;;;;;;18.96;65.52;101215.66;6003136;28;20031;-66
2023/07/09 01:51:36;;;;;;;5.80;3.90;;;;;;;18.90;66.28;101222.63;6003060;28;20119;-66
2023/07/09 01:54:33;;;;;;;5.53;3.93;;;;;;;18.95;65.74;101208.59;6000860;28;20039;-67
2023/07/09 01:57:33;;;;;;;5.63;4.00;;;;;;;18.92;66.27;101217.88;6002616;28;20087;-66
2023/07/09 02:00:28;;;;;;;8.95;4.45;;;;;;;18.96;66.43;101211.13;6002688;28;20093;-67
2023/07/09 02:03:24;;;;;;;6.77;4.00;;;;;;;18.71;66.61;101215.13;6002967;28;20038;-67
2023/07/09 02:06:20;;;;;;;9.30;4.60;;;;;;;18.56;68.03;101214.31;6004279;28;20037;-67
2023/07/09 02:09:15;;;;;;;6.87;4.30;;;;;;;18.47;67.92;101212.69;6002436;28;20039;-67
2023/07/09 02:12:11;;;;;;;6.93;4.47;;;;;;;18.47;68.52;101201.94;6002756;28;20144;-68
2023/07/09 02:15:07;;;;;;;6.68;4.38;;;;;;;18.52;68.83;101199.56;6001715;28;20026;-67
2023/07/09 02:18:02;;;;;;;8.38;4.55;;;;;;;18.64;67.80;101222.28;6011582;28;20113;-68
2023/07/09 02:20:58;;;;;;;9.00;4.10;;;;;;;18.78;67.68;101224.09;6002571;28;20041;-67
2023/07/09 02:23:53;;;;;;;6.60;4.00;;;;;;;18.88;67.51;101211.22;6002192;28;20286;-68
2023/07/09 02:26:49;;;;;;;6.00;3.80;;;;;;;18.86;67.50;101221.31;6002623;28;20062;-67
2023/07/09 02:29:45;;;;;;;6.00;4.18;;;;;;;18.88;67.44;101224.66;6002470;28;20039;-67
2023/07/09 02:32:41;;;;;;;7.93;4.40;;;;;;;18.61;67.60;101213.75;6002661;28;20030;-68
2023/07/09 02:35:37;;;;;;;8.65;4.00;;;;;;;18.63;67.40;101209.00;6005761;28;20118;-68
2023/07/09 02:38:32;;;;;;;6.18;3.83;;;;;;;18.54;67.94;101226.22;6018956;28;20030;-67
2023/07/09 02:41:27;;;;;;;9.63;5.80;;;;;;;18.51;67.80;101232.81;6002639;28;20370;-68
2023/07/09 02:44:23;;;;;;;16.75;7.18;;;;;;;18.23;69.38;101204.91;6001425;28;20108;-68
2023/07/09 02:47:19;;;;;;;15.45;6.90;;;;;;;18.28;68.91;101211.41;6008511;28;20023;-68
2023/07/09 02:50:14;;;;;;;15.15;7.07;;;;;;;18.44;69.80;101215.75;6014334;28;20030;-69
2023/07/09 02:53:09;;;;;;;12.70;7.03;;;;;;;18.61;67.98;101217.28;6009047;28;20044;-67
2023/07/09 02:56:04;;;;;;;16.00;6.50;;;;;;;18.87;69.31;101206.84;6009342;28;20525;-67
2023/07/09 02:59:00;;;;;;;11.73;6.37;;;;;;;18.77;69.62;101213.56;6006637;28;20027;-67
2023/07/09 03:01:56;;;;;;;11.13;5.20;;;;;;;18.74;67.42;101233.56;6006672;28;20030;-68
2023/07/09 03:04:51;;;;;;;8.48;4.93;;;;;;;18.56;67.90;101222.38;6016893;28;20070;-68
2023/07/09 03:07:46;;;;;;;7.50;4.57;;;;;;;18.36;69.45;101229.25;6006858;28;20038;-67
2023/07/09 03:10:41;;;;;;;7.33;4.43;;;;;;;18.21;68.92;101217.66;6006593;28;20117;-68
2023/07/09 03:13:37;;;;;;;13.00;6.63;;;;;;;18.44;70.03;101237.25;6005574;28;20542;-68
2023/07/09 03:16:33;;;;;;;12.47;6.10;;;;;;;18.50;70.35;101241.91;6006553;28;20035;-68
2023/07/09 03:19:29;;;;;;;13.43;6.43;;;;;;;18.66;71.61;101238.19;6011368;28;20489;-68
2023/07/09 03:22:24;;;;;;;14.00;6.53;;;;;;;18.87;69.23;101236.44;6008511;28;20027;-68
2023/07/09 03:25:19;;;;;;;15.27;6.53;;;;;;;18.97;69.55;101234.28;6005462;28;20031;-68
2023/07/09 03:28:15;;;;;;;12.27;7.50;;;;;;;19.05;68.84;101240.59;6005860;28;20097;-68
2023/07/09 03:31:11;;;;;;;15.00;7.15;;;;;;;18.92;66.84;101233.16;6006072;28;20034;-67
2023/07/09 03:34:06;;;;;;;9.20;6.03;;;;;;;18.40;68.73;101234.06;6017693;28;20054;-67
2023/07/09 03:37:01;;;;;;;8.15;4.80;;;;;;;18.15;70.12;101242.56;6006258;28;20037;-68
2023/07/09 03:39:57;;;;;;;8.23;4.33;;;;;;;17.99;70.97;101248.91;6005605;28;20041;-67
2023/07/09 03:42:52;;;;;;;8.03;4.63;;;;;;;18.17;70.33;101251.28;6006118;28;20033;-68
2023/07/09 03:45:47;;;;;;;8.27;4.57;;;;;;;18.32;70.87;101249.44;6004984;28;20038;-68
2023/07/09 03:48:43;;;;;;;7.75;4.28;;;;;;;18.23;70.94;101226.38;6006355;28;20398;-68
2023/07/09 03:51:38;;;;;;;10.67;4.43;;;;;;;17.94;70.39;101229.81;6007518;28;20040;-67
2023/07/09 03:54:33;;;;;;;7.00;4.30;;;;;;;17.92;71.31;101236.38;6004731;28;20031;-67
2023/07/09 03:57:29;;;;;;;6.37;3.93;;;;;;;18.24;70.84;101246.81;6005303;28;20434;-66
2023/07/09 04:00:25;;;;;;;7.85;4.20;;;;;;;18.23;70.48;101235.28;6005769;28;20023;-66
2023/07/09 04:03:20;;;;;;;6.23;4.03;;;;;;;18.21;70.20;101248.03;6012915;28;20034;-66
2023/07/09 04:06:15;;;;;;;6.97;4.40;;;;;;;18.15;70.70;101242.56;6006582;28;20077;-67
2023/07/09 04:09:10;;;;;;;6.63;3.87;;;;;;;18.34;70.45;101253.59;6005294;28;20039;-68
2023/07/09 04:12:06;;;;;;;9.53;4.57;;;;;;;18.48;69.66;101253.84;6004885;28;20050;-67
2023/07/09 04:15:04;;;;;;;7.00;4.07;;;;;;;18.53;69.00;101259.50;6004719;28;20471;-67
2023/07/09 04:18:00;;;;;;;8.65;4.25;;;;;;;18.42;70.09;101255.41;6004874;28;20038;-67
2023/07/09 04:20:55;;;;;;;6.30;4.10;;;;;;;18.61;69.17;101243.31;6005110;28;20034;-67
2023/07/09 04:23:50;;;;;;;6.57;3.63;;;;;;;18.66;69.32;101241.72;6003408;28;20027;-67
2023/07/09 04:26:46;;;;;;;7.37;3.97;;;;;;;19.15;68.45;101260.78;6005637;28;20057;-67
2023/07/09 04:29:41;;;;;;;6.03;4.03;;;;;;;19.63;67.44;101251.19;6014202;28;20062;-67
2023/07/09 04:32:37;;;;;;;6.70;4.27;;;;;;;20.17;65.23;101244.22;6007971;28;20050;-67
2023/07/09 04:35:32;;;;;;;5.50;3.90;;;;;;;20.82;61.34;101243.00;6003000;28;20088;-67
2023/07/09 04:38:27;;;;;;;5.90;4.00;;;;;;;21.57;59.19;101256.41;6004256;28;20262;-66
2023/07/09 04:41:23;;;;;;;7.97;4.10;;;;;;;21.63;57.45;101258.31;6004162;28;20444;-66
2023/07/09 04:44:18;;;;;;;7.07;4.27;;;;;;;21.24;58.13;101250.09;6003519;28;20030;-66
2023/07/09 04:47:13;;;;;;;6.82;4.50;;;;;;;20.39;60.88;101244.19;6004280;28;20741;-67
2023/07/09 04:50:11;;;;;;;10.00;4.60;;;;;;;20.19;62.68;101269.09;6002768;28;20034;-68
2023/07/09 04:53:06;;;;;;;7.47;3.85;;;;;;;20.75;60.54;101274.50;5998555;28;20031;-66
2023/07/09 04:56:02;;;;;;;6.53;4.30;;;;;;;20.72;60.37;101253.34;6003745;28;20645;-68
2023/07/09 04:58:57;;;;;;;6.88;4.50;;;;;;;20.88;60.07;101262.94;6003017;28;20058;-67
2023/07/09 05:01:53;;;;;;;10.68;4.38;;;;;;;21.34;58.99;101272.09;6003749;28;20033;-68
2023/07/09 05:04:48;;;;;;;8.63;4.50;;;;;;;21.48;58.14;101246.81;6003992;28;20038;-67
2023/07/09 05:07:43;;;;;;;6.80;4.00;;;;;;;21.45;59.05;101259.88;6005933;28;20270;-67
2023/07/09 05:10:47;;;;;;;8.55;4.18;;;;;;;21.70;58.45;101261.00;6003950;28;20030;-68
2023/07/09 05:13:42;;;;;;;7.00;4.15;;;;;;;21.84;57.98;101257.28;6002897;28;20081;-67
2023/07/09 05:16:37;;;;;;;7.18;3.97;;;;;;;21.54;59.77;101254.13;6005056;28;20039;-67
2023/07/09 05:19:33;;;;;;;6.20;4.33;;;;;;;21.92;58.70;101271.47;6010877;28;20038;-67
2023/07/09 05:22:28;;;;;;;6.65;4.30;;;;;;;22.44;56.35;101246.28;6007484;28;20027;-66
2023/07/09 05:25:23;;;;;;;7.80;4.53;;;;;;;22.81;54.93;101254.75;6007564;28;20030;-68
2023/07/09 05:28:19;;;;;;;10.53;4.70;;;;;;;22.27;56.71;101255.88;6010467;28;20070;-67
2023/07/09 05:31:14;;;;;;;7.07;4.13;;;;;;;22.46;55.72;101238.78;6002823;28;20035;-67
2023/07/09 05:34:10;;;;;;;6.45;4.28;;;;;;;22.37;55.73;101250.84;6002775;28;20053;-68
2023/07/09 05:37:05;;;;;;;7.07;3.83;;;;;;;22.85;55.51;101258.69;6003114;28;20129;-68
2023/07/09 05:40:01;;;;;;;7.53;3.80;;;;;;;22.85;53.40;101264.13;5999874;28;20046;-66
2023/07/09 05:42:56;;;;;;;11.50;4.68;;;;;;;22.81;54.52;101260.16;6022452;28;20019;-67
2023/07/09 05:45:51;;;;;;;7.10;4.60;;;;;;;22.92;53.61;101256.78;6003601;28;20121;-67
2023/07/09 05:48:47;;;;;;;7.67;4.90;;;;;;;22.35;53.53;101263.75;6010494;28;20301;-67
2023/07/09 05:51:42;;;;;;;7.93;4.83;;;;;;;22.57;52.72;101250.00;6004068;28;20114;-67
2023/07/09 05:54:37;;;;;;;9.40;4.83;;;;;;;22.59;53.19;101269.53;6005781;28;20657;-67
2023/07/09 05:57:32;;;;;;;7.43;4.80;;;;;;;23.16;52.19;101260.66;6009124;28;20092;-67
2023/07/09 06:00:28;;;;;;;6.63;4.47;;;;;;;23.78;50.29;101257.22;6014441;28;20038;-67
2023/07/09 06:03:25;;;;;;;8.27;5.15;;;;;;;23.56;51.00;101271.09;6002339;28;20442;-67
2023/07/09 06:06:21;;;;;;;9.02;4.60;;;;;;;23.52;51.37;101278.00;6022902;28;20126;-67
2023/07/09 06:09:17;;;;;;;8.13;4.63;;;;;;;23.39;51.63;101279.94;6003103;28;20382;-67
2023/07/09 06:12:12;;;;;;;6.68;4.60;;;;;;;23.91;50.94;101276.94;6010336;28;20026;-66
2023/07/09 06:15:08;;;;;;;7.90;4.90;;;;;;;24.08;50.18;101278.03;6002593;28;20038;-67
2023/07/09 06:18:04;;;;;;;8.88;5.03;;;;;;;23.10;51.75;101273.19;6002738;28;20110;-67
2023/07/09 06:21:01;;;;;;;8.80;5.10;;;;;;;22.71;53.81;101289.53;6012160;28;20113;-68
2023/07/09 06:23:56;;;;;;;7.15;5.22;;;;;;;22.68;53.97;101295.34;6008057;28;20053;-67
2023/07/09 06:26:51;;;;;;;7.70;5.10;;;;;;;22.88;53.67;101274.50;6006130;28;20049;-68
2023/07/09 06:29:47;;;;;;;8.87;5.03;;;;;;;23.68;51.84;101276.66;6010686;28;20374;-66
2023/07/09 06:32:42;;;;;;;9.70;5.20;;;;;;;23.46;52.26;101289.69;6006948;28;20035;-66
2023/07/09 06:35:39;;;;;;;7.87;5.17;;;;;;;23.75;51.29;101290.16;6006350;28;20038;-67
2023/07/09 06:38:34;;;;;;;8.57;5.07;;;;;;;23.26;53.11;101283.53;6016649;28;20018;-66
2023/07/09 06:41:32;;;;;;;7.70;4.83;;;;;;;24.33;50.36;101290.78;6009008;28;20517;-68
2023/07/09 06:44:27;;;;;;;7.53;4.90;;;;;;;23.76;50.71;101273.69;6006632;28;20470;-67
2023/07/09 06:47:22;;;;;;;7.65;5.07;;;;;;;23.67;50.98;101275.81;6007091;28;20077;-67
2023/07/09 06:50:18;;;;;;;8.10;5.40;;;;;;;24.53;50.32;101292.28;6018328;28;20149;-66
2023/07/09 06:53:14;;;;;;;8.90;5.68;;;;;;;24.08;50.68;101282.66;6016556;28;20361;-66
2023/07/09 06:56:09;;;;;;;7.18;4.45;;;;;;;24.78;49.34;101290.38;6007287;28;20031;-67
2023/07/09 06:59:05;;;;;;;7.30;4.70;;;;;;;25.39;47.73;101286.72;6023518;28;20029;-67
2023/07/09 07:02:00;;;;;;;8.10;5.80;;;;;;;25.95;46.08;101279.03;6022534;28;20641;-68
2023/07/09 07:04:55;;;;;;;7.73;5.10;;;;;;;25.22;48.44;101291.16;6006006;28;20044;-67
2023/07/09 07:07:51;;;;;;;7.40;4.85;;;;;;;25.07;49.14;101294.25;6006798;28;20042;-66
2023/07/09 07:10:50;;;;;;;7.17;5.13;;;;;;;25.60;47.66;101293.59;6006760;28;20041;-66
2023/07/09 07:13:48;;;;;;;;;;;;;;;25.47;47.53;101291.88;6005900;28;20382;-68
2023/07/09 07:16:43;;;;;;;7.18;4.90;;;;;;;25.69;47.50;101295.75;6007711;28;19917;-66
2023/07/09 07:19:38;;;;;;;8.65;4.82;;;;;;;25.50;48.42;101271.56;6024540;28;20030;-66
2023/07/09 07:22:34;;;;;;;7.80;5.03;;;;;;;26.00;46.59;101273.75;6007901;28;20462;-67
2023/07/09 07:25:32;;;;;;;8.95;4.95;;;;;;;25.51;47.62;101281.38;6006674;28;20037;-67
2023/07/09 07:28:27;;;;;;;8.45;4.93;;;;;;;25.96;46.92;101291.56;6005999;28;20118;-68
2023/07/09 07:31:22;;;;;;;7.23;4.63;;;;;;;26.21;46.91;101268.81;6005895;28;20039;-66
2023/07/09 07:34:18;;;;;;;7.05;5.60;;;;;;;26.28;46.77;101272.28;6005742;28;20367;-67
2023/07/09 07:37:13;;;;;;;8.70;4.93;;;;;;;26.27;47.41;101281.50;6006147;28;20467;-67
2023/07/09 07:40:09;;;;;;;8.57;4.70;;;;;;;26.80;45.35;101268.59;6005553;28;20046;-66
2023/07/09 07:43:05;;;;;;;13.40;5.00;;;;;;;27.30;43.52;101266.09;6005767;28;20039;-68
2023/07/09 07:46:00;;;;;;;9.33;5.10;;;;;;;26.69;43.71;101265.88;6005532;28;20545;-68
2023/07/09 07:48:55;;;;;;;6.70;4.77;;;;;;;25.95;46.61;101267.34;6005869;28;20069;-68
2023/07/09 07:51:50;;;;;;;6.47;5.30;;;;;;;26.54;44.31;101266.34;6006248;28;20034;-65
2023/07/09 07:54:46;;;;;;;7.93;4.68;;;;;;;26.27;45.90;101278.78;6006831;28;20468;-65
2023/07/09 07:57:41;;;;;;;7.17;5.00;;;;;;;26.38;45.12;101269.78;6010011;28;20467;-66
2023/07/09 08:00:37;;;;;;;10.00;4.70;;;;;;;26.97;45.68;101269.53;6016829;28;20286;-68
2023/07/09 08:03:33;;;;;;;7.82;4.68;;;;;;;27.13;43.57;101260.59;6011759;28;20766;-65
2023/07/09 08:06:28;;;;;;;6.95;4.70;;;;;;;27.26;43.52;101266.84;6005762;28;20037;-65
2023/07/09 08:09:24;;;;;;;7.55;4.88;;;;;;;27.49;43.09;101269.50;6006769;28;20035;-66
2023/07/09 08:12:19;;;;;;;7.13;4.93;;;;;;;28.03;42.30;101274.31;6005340;28;20049;-67
2023/07/09 08:15:15;;;;;;;5.95;4.10;;;;;;;27.65;43.41;101268.72;6004624;28;20078;-67
2023/07/09 08:18:10;;;;;;;9.70;4.95;;;;;;;27.84;43.46;101263.84;6005183;28;20038;-66
2023/07/09 08:21:05;;;;;;;8.33;4.50;;;;;;;28.27;41.75;101277.72;6010707;28;20050;-66
2023/07/09 08:24:01;;;;;;;6.17;4.47;;;;;;;28.62;40.81;101258.34;6006675;28;20361;-65
2023/07/09 08:27:00;;;;;;;8.82;4.50;;;;;;;28.51;41.42;101251.06;6005354;28;20030;-66
2023/07/09 08:29:55;;;;;;;8.70;4.68;;;;;;;29.10;40.90;101263.91;6004953;28;20355;-66
2023/07/09 08:32:50;;;;;;;7.80;4.57;;;;;;;29.16;40.66;101262.06;6005184;28;20034;-67
2023/07/09 08:35:45;;;;;;;6.40;4.55;;;;;;;29.55;39.24;101265.53;6004089;28;20042;-66
2023/07/09 08:38:42;;;;;;;5.70;4.23;;;;;;;30.24;38.58;101260.97;6004511;28;20057;-66
2023/07/09 08:42:08;;;;;;;7.95;4.95;;;;;;;29.42;39.63;101264.03;6015299;28;20082;-65
2023/07/09 08:45:15;;;;;;;6.43;5.00;;;;;;;29.40;40.43;101261.56;6004955;28;20038;-67
2023/07/09 08:48:30;;;;;;;8.48;4.85;;;;;;;29.84;39.79;101245.06;6007659;28;20031;-66
2023/07/09 08:51:29;;;;;;;7.00;4.93;;;;;;;30.11;39.20;101237.63;6010508;28;20061;-66
2023/07/09 08:54:31;;;;;;;6.80;4.45;;;;;;;30.15;37.37;101243.38;6017862;28;20041;-67
2023/07/09 08:57:29;;;;;;;7.82;5.30;;;;;;;30.57;36.80;101239.63;6012001;28;20390;-67
2023/07/09 09:00:57;;;;;;;6.63;4.85;;;;;;;30.42;38.04;101239.50;6002916;28;20030;-67
2023/07/09 09:03:59;;;;;;;9.52;4.90;;;;;;;30.51;37.23;101243.41;6007969;28;20037;-67
2023/07/09 09:07:07;;;;;;;7.30;4.88;;;;;;;30.47;37.44;101230.50;6003011;28;20026;-67
2023/07/09 09:10:03;;;;;;;6.30;4.70;;;;;;;30.28;38.25;101224.59;6004661;28;20053;-67
2023/07/09 09:13:09;;;;;;;7.68;4.85;;;;;;;30.14;38.10;101228.06;6003969;28;20027;-66
2023/07/09 09:16:11;;;;;;;8.85;5.10;;;;;;;30.19;38.76;101228.94;6003698;28;20031;-66
2023/07/09 09:19:18;;;;;;;7.28;4.63;;;;;;;30.83;38.71;101234.25;6013955;28;20070;-66
2023/07/09 09:22:18;;;;;;;8.35;4.72;;;;;;;31.11;37.44;101231.13;6002401;28;20043;-67
2023/07/09 09:25:31;;;;;;;6.70;4.72;;;;;;;31.03;36.52;101228.88;6004539;28;20033;-67
2023/07/09 09:28:27;;;;;;;7.72;4.93;;;;;;;30.88;36.65;101231.53;6003317;28;20026;-66
2023/07/09 09:31:24;;;;;;;7.18;4.78;;;;;;;31.31;36.09;101231.16;6009565;28;20058;-67
2023/07/09 09:34:28;;;;;;;7.03;4.53;;;;;;;31.41;35.53;101233.09;6002842;28;20027;-67
2023/07/09 09:37:31;;;;;;;6.65;5.20;;;;;;;31.42;35.85;101238.31;6003821;28;20038;-66
2023/07/09 09:40:29;;;;;;;8.32;5.03;;;;;;;31.44;36.01;101230.66;6003513;28;20190;-66
2023/07/09 09:43:26;;;;;;;7.68;4.78;;;;;;;31.87;34.63;101240.31;6009052;28;20030;-66
2023/07/09 09:46:29;;;;;;;6.97;4.75;;;;;;;31.61;35.00;101219.44;6002185;28;20069;-66
2023/07/09 09:49:24;;;;;;;7.28;4.75;;;;;;;31.90;35.41;101228.81;6003061;28;20061;-66
2023/07/09 09:52:30;;;;;;;6.95;5.13;;;;;;;32.25;34.94;101225.22;6003623;28;20382;-66
2023/07/09 09:55:29;;;;;;;11.30;5.95;;;;;;;32.12;35.31;101221.13;6002554;28;20427;-67
2023/07/09 09:58:27;;;;;;;;;;;;;;;32.74;33.32;101234.47;6003750;28;20385;-66
2023/07/09 10:01:34;;;;;;;7.47;4.90;;;;;;;32.32;33.97;101226.56;6008392;28;19910;-66
2023/07/09 10:04:30;;;;;;;6.72;4.95;;;;;;;32.43;34.98;101216.38;6002447;28;20081;-67
2023/07/09 10:07:34;;;;;;;7.75;4.40;;;;;;;32.88;34.10;101235.53;6005768;28;20030;-66
2023/07/09 10:10:32;;;;;;;9.55;4.53;;;;;;;32.57;33.56;101239.47;6001568;28;20470;-66
2023/07/09 10:13:32;;;;;;;8.73;5.30;;;;;;;32.91;33.99;101223.94;6001104;28;20375;-66
2023/07/09 10:16:36;;;;;;;7.30;4.40;;;;;;;33.06;33.86;101236.84;6002418;28;20121;-67
2023/07/09 10:19:58;;;;;;;6.95;4.63;;;;;;;33.12;33.89;101218.38;6016278;28;20177;-66
2023/07/09 10:23:15;;;;;;;7.63;4.40;;;;;;;33.51;32.11;101224.75;6013000;28;20034;-66
2023/07/09 10:26:45;;;;;;;7.25;4.13;;;;;;;33.48;32.54;101223.38;6002756;28;20041;-66
2023/07/09 10:29:56;;;;;;;7.03;4.60;;;;;;;33.16;32.77;101217.53;5992785;28;20046;-67
2023/07/09 10:32:57;;;;;;;;;;;;;;;32.74;33.44;101228.97;6002661;28;20085;-66
2023/07/09 10:36:19;;;;;;;6.57;4.65;;;;;;;33.18;32.87;101222.75;6016655;28;20364;-67
2023/07/09 10:39:20;;;;;;;6.55;4.60;;;;;;;33.51;32.49;101219.25;5988918;28;20487;-66
2023/07/09 10:42:22;;;;;;;6.30;4.68;;;;;;;33.76;31.31;101221.81;6011419;28;20034;-66
2023/07/09 10:45:26;;;;;;;7.38;4.40;;;;;;;33.53;30.99;101217.03;5998678;28;20038;-66
2023/07/09 10:48:38;;;;;;;5.50;4.28;;;;;;;33.55;30.85;101220.31;6036361;28;20030;-66
2023/07/09 10:51:37;;;;;;;7.47;4.30;;;;;;;33.70;31.33;101214.69;6004654;28;20037;-66
2023/07/09 10:54:52;;;;;;;6.57;4.43;;;;;;;33.41;31.32;101205.53;5999085;28;20558;-66
2023/07/09 10:58:11;;;;;;;9.18;4.45;;;;;;;33.61;30.26;101213.69;5999017;28;20035;-67
2023/07/09 11:01:06;;;;;;;6.20;4.72;;;;;;;33.81;30.45;101180.47;5998117;28;20038;-67
2023/07/09 11:04:09;;;;;;;6.70;4.50;;;;;;;33.49;30.96;101202.19;5996992;28;20114;-67
2023/07/09 11:07:10;;;;;;;7.75;4.18;;;;;;;33.53;30.90;101215.09;6000463;28;20819;-66
2023/07/09 11:10:26;;;;;;;6.15;4.25;;;;;;;33.70;30.56;101214.69;6007531;28;20475;-69
2023/07/09 11:13:28;;;;;;;7.78;4.40;;;;;;;33.58;29.80;101195.00;6004397;28;20176;-67
2023/07/09 11:16:36;;;;;;;6.65;4.68;;;;;;;33.40;29.28;101192.91;6010103;28;20091;-67
2023/07/09 11:19:31;;;;;;;6.07;4.57;;;;;;;33.44;29.70;101200.31;6002161;28;20034;-67
2023/07/09 11:22:37;;;;;;;8.20;4.55;;;;;;;33.87;30.10;101195.84;6010226;28;20046;-66
2023/07/09 11:25:43;;;;;;;7.80;4.20;;;;;;;33.73;27.84;101192.13;6002874;28;20039;-66
2023/07/09 11:28:40;;;;;;;7.50;4.00;;;;;;;33.70;28.04;101200.16;6003615;28;20125;-67
2023/07/09 11:31:40;;;;;;;8.80;3.78;;;;;;;34.02;28.07;101194.91;6003170;28;20037;-67
2023/07/09 11:34:44;;;;;;;9.48;4.40;;;;;;;34.25;26.60;101191.38;6004595;28;20034;-67
2023/07/09 11:37:46;;;;;;;8.73;4.20;;;;;;;34.02;27.13;101190.22;6026418;28;20044;-67
2023/07/09 11:40:50;;;;;;;9.23;4.43;;;;;;;33.37;27.45;101190.72;6014637;28;20483;-66
2023/07/09 11:43:48;;;;;;;5.75;3.97;;;;;;;34.26;26.06;101192.19;6012211;28;20104;-67
2023/07/09 11:47:21;;;;;;;7.47;4.25;;;;;;;34.21;26.15;101192.25;6015991;28;20038;-67
2023/07/09 11:50:29;;;;;;;8.18;3.88;;;;;;;34.48;26.04;101181.47;6013151;28;20081;-67
2023/07/09 11:53:36;;;;;;;6.15;4.03;;;;;;;34.76;25.39;101175.09;6011135;28;20065;-66
2023/07/09 11:56:32;;;;;;;5.50;3.90;;;;;;;34.57;25.39;101163.22;6012089;28;20471;-67
2023/07/09 11:59:28;;;;;;;6.63;3.92;;;;;;;34.66;26.45;101161.44;6011216;28;20493;-66
2023/07/09 12:02:23;;;;;;;5.40;3.70;;;;;;;34.99;25.88;101174.22;6003738;28;20043;-68
2023/07/09 12:05:21;;;;;;;7.25;4.00;;;;;;;34.59;25.67;101161.81;6005923;28;20037;-67
2023/07/09 12:08:18;;;;;;;9.35;4.43;;;;;;;34.43;25.77;101174.09;6012673;28;20384;-67
2023/07/09 12:11:23;;;;;;;6.43;3.60;;;;;;;34.71;26.28;101166.88;6010401;28;20536;-67
2023/07/09 12:14:21;;;;;;;6.75;4.00;;;;;;;34.83;27.97;101153.50;6012664;28;20030;-67
2023/07/09 12:17:17;;;;;;;7.72;4.10;;;;;;;34.52;27.15;101143.94;6021424;28;20061;-67
2023/07/09 12:20:13;;;;;;;8.30;4.18;;;;;;;34.92;27.08;101143.47;6005193;28;20042;-67
2023/07/09 12:23:20;;;;;;;7.18;4.20;;;;;;;34.79;27.46;101146.91;6003528;28;20054;-67
2023/07/09 12:26:18;;;;;;;7.68;4.53;;;;;;;34.34;28.44;101133.72;6008479;28;20026;-66
2023/07/09 12:29:14;;;;;;;6.97;4.43;;;;;;;34.87;27.30;101146.25;6011478;28;20042;-67
2023/07/09 12:32:12;;;;;;;9.10;4.38;;;;;;;34.95;27.85;101129.03;6027235;28;20080;-67
2023/07/09 12:35:12;;;;;;;6.65;4.68;;;;;;;34.95;27.42;101129.03;6008399;28;20081;-67
2023/07/09 12:38:21;;;;;;;6.13;4.80;;;;;;;35.28;28.04;101134.69;6005093;28;20042;-66
2023/07/09 12:41:24;;;;;;;6.35;4.82;;;;;;;35.39;27.33;101134.19;6009037;28;20364;-67
2023/07/09 12:44:21;;;;;;;7.72;4.35;;;;;;;35.85;26.78;101129.53;6003815;28;20038;-68
2023/07/09 12:47:18;;;;;;;8.60;5.55;;;;;;;34.66;27.47;101131.13;6007121;28;20038;-67
2023/07/09 12:50:22;;;;;;;9.77;4.95;;;;;;;35.15;26.55;101136.22;6004161;28;20031;-67
2023/07/09 12:53:21;;;;;;;6.80;4.63;;;;;;;34.81;26.72;101135.63;6002527;28;20046;-67
2023/07/09 12:56:17;;;;;;;8.05;4.72;;;;;;;35.37;27.02;101127.34;6004515;28;20034;-67
2023/07/09 12:59:17;;;;;;;6.30;4.38;;;;;;;35.37;27.16;101116.28;6002812;28;20038;-67
2023/07/09 13:02:20;;;;;;;6.95;4.70;;;;;;;35.21;26.90;101121.25;6004548;28;20482;-67
2023/07/09 13:05:21;;;;;;;7.30;5.10;;;;;;;34.98;27.04;101108.34;6003409;28;20031;-67
2023/07/09 13:08:17;;;;;;;6.13;4.10;;;;;;;35.15;25.80;101116.94;6015939;28;20081;-67
2023/07/09 13:11:16;;;;;;;7.32;4.75;;;;;;;35.76;25.26;101117.59;6003949;28;20348;-67
2023/07/09 13:14:21;;;;;;;6.65;4.40;;;;;;;35.48;25.65;101101.22;6003672;28;20031;-68
2023/07/09 13:17:16;;;;;;;7.13;4.30;;;;;;;35.58;26.27;101103.81;6003545;28;20036;-66
2023/07/09 13:20:11;;;;;;;6.07;4.50;;;;;;;35.56;25.19;101109.66;6005087;28;20379;-67
2023/07/09 13:23:13;;;;;;;8.80;5.13;;;;;;;35.43;25.27;101110.41;6004428;28;20122;-66
2023/07/09 13:26:08;;;;;;;11.43;5.32;;;;;;;35.04;24.79;101096.94;6002999;28;20356;-67
2023/07/09 13:29:12;;;;;;;7.35;4.50;;;;;;;34.40;24.81;101096.72;6003445;28;20047;-66
2023/07/09 13:32:10;;;;;;;6.85;4.53;;;;;;;34.67;24.63;101103.28;6005713;28;20046;-67
2023/07/09 13:35:16;;;;;;;6.18;4.38;;;;;;;35.03;23.74;101097.25;6002534;28;20031;-67
2023/07/09 13:38:16;;;;;;;6.28;4.13;;;;;;;35.98;23.59;101094.81;6007048;28;20061;-66
2023/07/09 13:41:17;;;;;;;7.60;4.68;;;;;;;35.55;23.88;101057.53;6021107;28;20363;-67
2023/07/09 13:44:15;;;;;;;8.00;4.65;;;;;;;34.78;24.41;101092.91;6017190;28;20471;-67
2023/07/09 13:47:16;;;;;;;7.68;4.43;;;;;;;34.77;24.71;101079.41;6002383;28;20042;-68
2023/07/09 13:50:11;;;;;;;8.75;4.60;;;;;;;34.93;24.26;101073.38;5997259;28;20105;-67